Time;durP1;ratioP1;P1;durP2;ratioP2;P2;SDS_P1;SDS_P2;PMS_P1;PMS_P2;Temp;Humidity;BMP_temperature;BMP_pressure;BME280_temperature;BME280_humidity;BME280_pressure;Samples;Min_cycle;Max_cycle;Signal;HPM_P1;HPM_P2
2021/08/25 00:01:01;;;;;;;6.30;3.90;;;12.20;99.90;;;;;;488433;242;28682;-70
2021/08/25 00:03:02;;;;;;;5.30;4.80;;;12.20;99.90;;;;;;488456;242;28671;-70
2021/08/25 00:05:03;;;;;;;4.20;3.80;;;12.20;99.90;;;;;;488431;242;29743;-70
2021/08/25 00:07:07;;;;;;;4.80;4.40;;;12.20;99.90;;;;;;488469;242;28206;-70
2021/08/25 00:09:06;;;;;;;4.70;4.30;;;12.20;99.90;;;;;;488368;243;28124;-70
2021/08/25 00:11:07;;;;;;;4.50;4.10;;;12.20;99.90;;;;;;488458;242;28102;-70
2021/08/25 00:13:08;;;;;;;4.40;4.00;;;12.10;99.90;;;;;;488447;242;28218;-71
2021/08/25 00:15:09;;;;;;;4.80;4.30;;;12.10;99.90;;;;;;488435;242;28235;-70
2021/08/25 00:17:11;;;;;;;4.90;4.40;;;12.10;99.90;;;;;;488467;242;28165;-70
2021/08/25 00:19:12;;;;;;;5.13;4.63;;;12.10;99.90;;;;;;488454;242;28089;-70
2021/08/25 00:21:13;;;;;;;4.87;4.37;;;12.10;99.90;;;;;;488432;242;28233;-70
2021/08/25 00:23:14;;;;;;;5.43;4.80;;;12.10;99.90;;;;;;488447;242;28245;-70
2021/08/25 00:25:16;;;;;;;4.50;4.10;;;12.10;99.90;;;;;;488407;243;29156;-70
2021/08/25 00:27:17;;;;;;;5.97;4.13;;;12.10;99.90;;;;;;488431;242;28543;-70
2021/08/25 00:29:18;;;;;;;5.00;3.93;;;12.00;99.90;;;;;;488455;242;28877;-70
2021/08/25 00:31:19;;;;;;;4.87;4.10;;;12.00;99.90;;;;;;488441;242;28452;-70
2021/08/25 00:33:21;;;;;;;5.10;4.33;;;12.00;99.90;;;;;;488434;242;28115;-70
2021/08/25 00:35:22;;;;;;;5.03;4.50;;;12.00;99.90;;;;;;488479;243;28154;-70
2021/08/25 00:37:23;;;;;;;5.27;4.77;;;12.00;99.90;;;;;;488460;242;28169;-70
2021/08/25 00:39:24;;;;;;;4.70;4.30;;;11.90;99.90;;;;;;488475;242;28137;-70
2021/08/25 00:41:26;;;;;;;4.47;4.07;;;11.90;99.90;;;;;;488467;242;27992;-70
2021/08/25 00:43:27;;;;;;;4.60;4.20;;;11.90;99.90;;;;;;488453;242;27997;-69
2021/08/25 00:45:28;;;;;;;5.27;4.13;;;11.90;99.90;;;;;;488484;242;28140;-70
2021/08/25 00:47:29;;;;;;;4.37;3.97;;;11.80;99.90;;;;;;488475;242;28129;-70
2021/08/25 00:49:31;;;;;;;4.73;4.23;;;11.80;99.90;;;;;;488459;242;28608;-70
2021/08/25 00:51:32;;;;;;;4.87;4.37;;;11.70;99.90;;;;;;488429;242;28537;-70
2021/08/25 00:53:33;;;;;;;4.30;3.90;;;11.60;99.90;;;;;;488441;243;28553;-69
2021/08/25 00:55:34;;;;;;;4.43;4.03;;;11.70;99.90;;;;;;488455;242;28360;-70
2021/08/25 00:57:36;;;;;;;5.30;4.83;;;11.60;99.90;;;;;;488428;242;27975;-70
2021/08/25 00:59:37;;;;;;;5.63;5.03;;;11.70;99.90;;;;;;488428;242;28230;-70
2021/08/25 01:01:38;;;;;;;6.67;5.27;;;11.70;99.90;;;;;;488415;242;27950;-70
2021/08/25 01:03:39;;;;;;;6.60;5.70;;;11.80;99.90;;;;;;488471;242;27964;-70
2021/08/25 01:05:41;;;;;;;6.07;5.10;;;11.80;99.90;;;;;;488447;242;28065;-70
2021/08/25 01:07:42;;;;;;;6.10;5.40;;;11.80;99.90;;;;;;488431;242;28219;-70
2021/08/25 01:09:43;;;;;;;5.87;5.30;;;11.80;99.90;;;;;;488421;242;28416;-70
2021/08/25 01:11:46;;;;;;;6.30;5.70;;;11.80;99.90;;;;;;488403;243;28086;-70
2021/08/25 01:13:46;;;;;;;6.27;5.47;;;11.80;99.90;;;;;;488310;243;28388;-69
2021/08/25 01:15:47;;;;;;;4.93;4.53;;;11.80;99.90;;;;;;488444;242;28580;-70
2021/08/25 01:17:48;;;;;;;5.40;4.90;;;11.80;99.90;;;;;;488448;242;28658;-70
2021/08/25 01:19:49;;;;;;;5.63;5.13;;;11.80;99.90;;;;;;488459;242;28612;-70
2021/08/25 01:21:51;;;;;;;7.47;5.70;;;11.70;99.90;;;;;;488443;242;28007;-70
2021/08/25 01:23:52;;;;;;;6.30;5.70;;;11.60;99.90;;;;;;488487;242;28118;-70
2021/08/25 01:25:53;;;;;;;5.67;5.07;;;11.50;99.90;;;;;;488454;242;28158;-70
2021/08/25 01:27:54;;;;;;;6.27;5.67;;;11.50;99.90;;;;;;488461;242;27811;-70
2021/08/25 01:29:56;;;;;;;5.47;4.97;;;11.50;99.90;;;;;;488474;242;28020;-70
2021/08/25 01:31:57;;;;;;;6.30;5.70;;;11.40;99.90;;;;;;488468;242;28164;-70
2021/08/25 01:33:58;;;;;;;5.90;5.40;;;11.40;99.90;;;;;;488465;242;27875;-70
2021/08/25 01:35:59;;;;;;;5.93;5.33;;;11.40;99.90;;;;;;488500;242;27902;-71
2021/08/25 01:38:01;;;;;;;5.67;5.07;;;11.40;99.90;;;;;;488458;242;28001;-70
2021/08/25 01:40:02;;;;;;;6.10;5.50;;;11.50;99.90;;;;;;488442;243;28333;-70
2021/08/25 01:42:03;;;;;;;6.00;5.40;;;11.50;99.90;;;;;;488480;242;28571;-70
2021/08/25 01:44:04;;;;;;;6.17;5.57;;;11.50;99.90;;;;;;488448;242;28438;-70
2021/08/25 01:46:06;;;;;;;6.00;5.33;;;11.50;99.90;;;;;;488498;242;28142;-70
2021/08/25 01:48:07;;;;;;;5.53;4.93;;;11.50;99.90;;;;;;488471;242;27935;-70
2021/08/25 01:50:08;;;;;;;5.40;4.90;;;11.50;99.90;;;;;;488494;242;27900;-70
2021/08/25 01:52:09;;;;;;;5.20;4.80;;;11.40;99.90;;;;;;488454;242;28045;-69
2021/08/25 01:54:11;;;;;;;5.70;5.07;;;11.40;99.90;;;;;;488429;243;27856;-69
2021/08/25 01:56:12;;;;;;;8.90;5.67;;;11.40;99.90;;;;;;488468;242;28018;-70
2021/08/25 01:58:13;;;;;;;5.37;4.60;;;11.40;99.90;;;;;;488461;242;28119;-70
2021/08/25 02:00:14;;;;;;;6.00;5.10;;;11.40;99.90;;;;;;488484;242;28168;-70
2021/08/25 02:02:16;;;;;;;5.63;5.03;;;11.40;99.90;;;;;;488488;242;28075;-70
2021/08/25 02:04:17;;;;;;;4.80;4.33;;;11.30;99.90;;;;;;488492;242;27987;-70
2021/08/25 02:06:18;;;;;;;5.57;4.97;;;11.20;99.90;;;;;;488534;242;28576;-70
2021/08/25 02:08:19;;;;;;;5.23;4.77;;;11.10;99.90;;;;;;488521;242;28366;-71
2021/08/25 02:10:21;;;;;;;5.10;4.60;;;10.90;99.90;;;;;;488475;242;28620;-70
2021/08/25 02:12:22;;;;;;;5.50;4.80;;;10.60;99.90;;;;;;488477;242;27958;-70
2021/08/25 02:14:23;;;;;;;5.77;4.40;;;10.50;99.90;;;;;;488476;243;27942;-71
2021/08/25 02:16:24;;;;;;;5.07;4.03;;;10.40;99.90;;;;;;488470;243;27885;-70
2021/08/25 02:18:26;;;;;;;4.67;4.23;;;10.50;99.90;;;;;;488473;242;27871;-71
2021/08/25 02:20:27;;;;;;;5.20;4.63;;;10.50;99.90;;;;;;488460;242;27921;-70
2021/08/25 02:22:28;;;;;;;4.80;4.33;;;10.60;99.90;;;;;;488484;242;27754;-70
2021/08/25 02:24:29;;;;;;;5.70;4.60;;;10.60;99.90;;;;;;488466;242;27641;-70
2021/08/25 02:26:31;;;;;;;4.67;4.27;;;10.70;99.90;;;;;;488497;242;27752;-70
2021/08/25 02:28:32;;;;;;;5.57;4.67;;;10.70;99.90;;;;;;488492;242;28190;-70
2021/08/25 02:30:33;;;;;;;5.03;3.83;;;10.70;99.90;;;;;;488458;243;28329;-70
2021/08/25 02:32:34;;;;;;;4.50;4.10;;;10.70;99.90;;;;;;488508;242;28318;-69
2021/08/25 02:34:36;;;;;;;4.80;4.40;;;10.70;99.90;;;;;;488467;242;28306;-70
2021/08/25 02:36:37;;;;;;;4.93;4.43;;;10.70;99.90;;;;;;488466;242;27907;-70
2021/08/25 02:38:38;;;;;;;4.27;3.87;;;10.70;99.90;;;;;;488446;242;27798;-70
2021/08/25 02:40:39;;;;;;;4.60;4.20;;;10.70;99.90;;;;;;488430;242;27819;-70
2021/08/25 02:42:41;;;;;;;5.00;4.53;;;10.60;99.90;;;;;;488501;242;27816;-70
2021/08/25 02:44:42;;;;;;;9.30;4.80;;;10.60;99.90;;;;;;488460;242;27637;-70
2021/08/25 02:46:43;;;;;;;5.07;4.60;;;10.70;99.90;;;;;;488442;242;27913;-70
2021/08/25 02:48:44;;;;;;;5.47;4.90;;;10.60;99.90;;;;;;488478;242;27626;-70
2021/08/25 02:50:46;;;;;;;4.73;4.33;;;10.60;99.90;;;;;;488449;242;27732;-70
2021/08/25 02:52:47;;;;;;;5.20;4.70;;;10.60;99.90;;;;;;488477;242;27850;-70
2021/08/25 02:54:48;;;;;;;5.73;5.13;;;10.50;99.90;;;;;;488453;243;28310;-70
2021/08/25 02:56:49;;;;;;;5.27;4.77;;;10.50;99.90;;;;;;488454;242;28398;-70
2021/08/25 02:58:51;;;;;;;4.30;4.00;;;10.60;99.90;;;;;;488426;242;28408;-70
2021/08/25 03:00:54;;;;;;;4.70;4.23;;;10.60;99.90;;;;;;488476;242;27898;-70
2021/08/25 03:02:53;;;;;;;5.40;4.90;;;10.60;99.90;;;;;;488363;243;27877;-70
2021/08/25 03:04:54;;;;;;;5.30;4.80;;;10.60;99.90;;;;;;488457;242;27842;-70
2021/08/25 03:06:56;;;;;;;5.17;4.67;;;10.50;99.90;;;;;;488433;242;27937;-70
2021/08/25 03:08:57;;;;;;;5.27;4.77;;;10.50;99.90;;;;;;488430;242;27852;-70
2021/08/25 03:10:58;;;;;;;5.03;4.53;;;10.50;99.90;;;;;;488456;242;27892;-70
2021/08/25 03:12:59;;;;;;;5.60;5.10;;;10.50;99.90;;;;;;488468;242;27920;-70
2021/08/25 03:15:01;;;;;;;6.33;5.47;;;10.50;99.90;;;;;;488455;242;27976;-70
2021/08/25 03:17:02;;;;;;;5.93;5.33;;;10.50;99.90;;;;;;488431;242;27879;-70
2021/08/25 03:19:03;;;;;;;7.17;5.53;;;10.60;99.90;;;;;;488465;242;28806;-70
2021/08/25 03:21:05;;;;;;;6.73;5.60;;;10.70;99.90;;;;;;488446;242;28501;-71
2021/08/25 03:23:06;;;;;;;5.93;5.33;;;10.70;99.90;;;;;;488440;242;28244;-70
2021/08/25 03:25:07;;;;;;;6.60;5.93;;;10.70;99.90;;;;;;488464;242;28306;-70
2021/08/25 03:27:08;;;;;;;5.83;5.33;;;10.70;99.90;;;;;;488440;242;27841;-70
2021/08/25 03:29:09;;;;;;;7.00;6.30;;;10.80;99.90;;;;;;488455;242;27959;-70
2021/08/25 03:31:11;;;;;;;6.23;5.67;;;10.80;99.90;;;;;;488459;243;27827;-70
2021/08/25 03:33:12;;;;;;;7.40;6.70;;;10.80;99.90;;;;;;488463;242;27950;-70
2021/08/25 03:35:13;;;;;;;6.40;5.80;;;10.80;99.90;;;;;;488463;242;27757;-70
2021/08/25 03:37:14;;;;;;;9.03;6.30;;;10.90;99.90;;;;;;488411;242;27963;-70
2021/08/25 03:39:16;;;;;;;8.40;6.93;;;10.90;99.90;;;;;;488446;242;27846;-70
2021/08/25 03:41:17;;;;;;;8.57;7.67;;;10.90;99.90;;;;;;488457;242;27743;-70
2021/08/25 03:43:18;;;;;;;8.30;7.33;;;10.90;99.90;;;;;;488454;242;28345;-70
2021/08/25 03:45:19;;;;;;;8.83;7.67;;;11.00;99.90;;;;;;488451;242;28392;-70
2021/08/25 03:47:21;;;;;;;9.10;7.63;;;11.00;99.90;;;;;;488423;242;28465;-70
2021/08/25 03:49:22;;;;;;;9.30;7.83;;;11.00;99.90;;;;;;488487;242;28701;-70
2021/08/25 03:51:23;;;;;;;9.83;7.97;;;10.90;99.90;;;;;;488510;242;27796;-70
2021/08/25 03:53:24;;;;;;;12.30;8.60;;;11.00;99.90;;;;;;488478;242;28075;-70
2021/08/25 03:55:26;;;;;;;9.50;7.93;;;11.00;99.90;;;;;;488484;242;27735;-70
2021/08/25 03:57:27;;;;;;;10.07;8.00;;;11.00;99.90;;;;;;488443;242;27894;-70
2021/08/25 03:59:28;;;;;;;8.90;8.00;;;11.00;99.90;;;;;;488492;242;27906;-70
2021/08/25 04:01:29;;;;;;;7.43;6.63;;;11.00;99.90;;;;;;488449;243;27957;-70
2021/08/25 04:03:31;;;;;;;9.40;7.40;;;11.00;99.90;;;;;;488457;242;28260;-70
2021/08/25 04:05:32;;;;;;;7.93;6.90;;;11.00;99.90;;;;;;488454;242;27936;-70
2021/08/25 04:07:33;;;;;;;10.50;7.97;;;11.00;99.90;;;;;;488424;242;28843;-70
2021/08/25 04:09:34;;;;;;;8.50;7.10;;;11.00;99.90;;;;;;488478;243;28451;-70
2021/08/25 04:11:36;;;;;;;8.63;7.50;;;11.00;99.90;;;;;;488460;242;28402;-70
2021/08/25 04:13:37;;;;;;;8.77;7.37;;;11.00;99.90;;;;;;488459;242;27979;-70
2021/08/25 04:15:38;;;;;;;8.10;6.60;;;11.00;99.90;;;;;;488469;242;27832;-70
2021/08/25 04:17:39;;;;;;;7.17;6.20;;;11.00;99.90;;;;;;488462;242;27913;-70
2021/08/25 04:19:41;;;;;;;9.97;7.97;;;11.00;99.90;;;;;;488480;243;27900;-70
2021/08/25 04:21:42;;;;;;;8.80;7.30;;;11.00;99.90;;;;;;488440;242;27857;-70
2021/08/25 04:23:43;;;;;;;8.63;7.60;;;11.10;99.90;;;;;;488431;242;27991;-70
2021/08/25 04:25:45;;;;;;;9.23;8.00;;;11.10;99.90;;;;;;488458;242;27800;-70
2021/08/25 04:27:46;;;;;;;9.90;7.40;;;11.00;99.90;;;;;;488448;242;27969;-71
2021/08/25 04:29:47;;;;;;;8.20;7.30;;;11.00;99.90;;;;;;488469;242;28011;-70
2021/08/25 04:31:48;;;;;;;8.87;7.53;;;11.00;99.90;;;;;;488449;243;28361;-70
2021/08/25 04:33:50;;;;;;;7.87;6.10;;;11.00;99.90;;;;;;488432;242;28607;-70
2021/08/25 04:35:51;;;;;;;8.30;7.27;;;11.00;99.90;;;;;;488471;242;28240;-70
2021/08/25 04:37:52;;;;;;;7.10;6.20;;;11.00;99.90;;;;;;488429;242;27850;-70
2021/08/25 04:39:53;;;;;;;8.10;6.00;;;10.90;99.90;;;;;;488444;242;27858;-70
2021/08/25 04:41:55;;;;;;;6.20;5.63;;;10.90;99.90;;;;;;488460;242;27844;-71
2021/08/25 04:43:56;;;;;;;6.37;5.77;;;10.90;99.90;;;;;;488442;243;28067;-70
2021/08/25 04:45:57;;;;;;;6.00;5.50;;;10.90;99.90;;;;;;488443;242;27869;-70
2021/08/25 04:47:58;;;;;;;6.70;5.83;;;10.90;99.90;;;;;;488482;242;27857;-70
2021/08/25 04:50:00;;;;;;;7.33;6.60;;;10.80;99.90;;;;;;488453;242;27903;-70
2021/08/25 04:52:01;;;;;;;6.27;5.63;;;10.70;99.90;;;;;;488419;242;27765;-70
2021/08/25 04:54:02;;;;;;;5.63;5.13;;;10.60;99.90;;;;;;488432;242;27837;-70
2021/08/25 04:56:03;;;;;;;6.20;5.60;;;10.50;99.90;;;;;;488436;242;28973;-70
2021/08/25 04:58:05;;;;;;;6.07;5.10;;;10.40;99.90;;;;;;488489;243;28296;-70
2021/08/25 05:00:06;;;;;;;6.80;5.07;;;10.30;99.90;;;;;;488466;242;28575;-70
2021/08/25 05:02:07;;;;;;;5.53;5.03;;;10.30;99.90;;;;;;488495;243;28288;-70
2021/08/25 05:04:08;;;;;;;6.03;5.10;;;10.30;99.90;;;;;;488451;242;27986;-70
2021/08/25 05:06:10;;;;;;;5.70;5.20;;;10.40;99.90;;;;;;488446;242;27489;-70
2021/08/25 05:08:11;;;;;;;4.97;4.57;;;10.40;99.90;;;;;;488464;242;27643;-71
2021/08/25 05:10:12;;;;;;;5.40;4.90;;;10.30;99.90;;;;;;488477;242;27976;-70
2021/08/25 05:12:16;;;;;;;5.43;4.93;;;10.30;99.90;;;;;;488388;242;27733;-70
2021/08/25 05:14:15;;;;;;;6.47;5.87;;;10.30;99.90;;;;;;488206;243;27933;-70
2021/08/25 05:16:16;;;;;;;7.30;5.10;;;10.40;99.90;;;;;;488381;242;27735;-70
2021/08/25 05:18:17;;;;;;;4.93;4.53;;;10.50;99.90;;;;;;488470;242;28328;-70
2021/08/25 05:20:18;;;;;;;6.27;5.67;;;10.60;99.90;;;;;;488404;242;28846;-70
2021/08/25 05:22:20;;;;;;;5.17;4.77;;;10.70;99.90;;;;;;488462;242;28240;-70
2021/08/25 05:24:21;;;;;;;6.80;6.10;;;10.80;99.90;;;;;;488423;242;28382;-70
2021/08/25 05:26:22;;;;;;;7.73;6.10;;;10.80;99.90;;;;;;488435;242;29054;-70
2021/08/25 05:28:24;;;;;;;6.60;6.00;;;10.90;99.90;;;;;;488471;242;27961;-70
2021/08/25 05:30:25;;;;;;;5.90;5.37;;;10.90;99.90;;;;;;488455;242;27973;-70
2021/08/25 05:32:26;;;;;;;6.13;5.33;;;10.80;99.90;;;;;;488468;243;27846;-70
2021/08/25 05:34:27;;;;;;;6.50;5.90;;;10.70;99.90;;;;;;488462;242;27744;-70
2021/08/25 05:36:28;;;;;;;4.67;4.27;;;10.60;99.90;;;;;;488470;243;27885;-70
2021/08/25 05:38:30;;;;;;;6.03;5.43;;;10.50;99.90;;;;;;488470;243;27979;-70
2021/08/25 05:40:31;;;;;;;5.10;4.60;;;10.50;99.90;;;;;;488479;242;27940;-70
2021/08/25 05:42:32;;;;;;;5.60;4.90;;;10.60;99.90;;;;;;488465;242;28089;-70
2021/08/25 05:44:33;;;;;;;5.77;5.10;;;10.60;99.90;;;;;;488453;242;28427;-71
2021/08/25 05:46:35;;;;;;;5.33;4.83;;;10.70;99.90;;;;;;488452;243;28862;-70
2021/08/25 05:48:36;;;;;;;5.77;5.17;;;10.70;99.90;;;;;;488489;242;28336;-70
2021/08/25 05:50:37;;;;;;;4.70;4.23;;;10.80;99.90;;;;;;488430;243;28327;-70
2021/08/25 05:52:38;;;;;;;5.37;4.77;;;10.80;99.90;;;;;;488447;242;27910;-70
2021/08/25 05:54:40;;;;;;;6.10;5.13;;;10.80;99.90;;;;;;488470;242;27951;-70
2021/08/25 05:56:41;;;;;;;4.90;4.50;;;10.90;99.90;;;;;;488436;242;27864;-70
2021/08/25 05:58:42;;;;;;;4.43;4.03;;;10.90;99.90;;;;;;488466;242;27860;-70
2021/08/25 06:00:43;;;;;;;5.07;4.67;;;11.00;99.90;;;;;;488462;242;27974;-71
2021/08/25 06:02:45;;;;;;;5.60;5.10;;;11.00;99.90;;;;;;488474;242;28104;-70
2021/08/25 06:04:46;;;;;;;5.27;4.40;;;11.10;99.90;;;;;;488415;242;27965;-70
2021/08/25 06:06:47;;;;;;;5.63;5.13;;;11.10;99.90;;;;;;488466;242;27985;-70
2021/08/25 06:08:48;;;;;;;4.97;4.23;;;11.20;99.90;;;;;;488463;243;28045;-70
2021/08/25 06:10:50;;;;;;;6.23;4.43;;;11.30;99.90;;;;;;488457;242;28374;-70
2021/08/25 06:12:51;;;;;;;5.63;5.13;;;11.40;99.90;;;;;;488452;242;28511;-70
2021/08/25 06:14:52;;;;;;;6.57;5.90;;;11.50;99.90;;;;;;488451;242;28469;-70
2021/08/25 06:16:53;;;;;;;6.20;5.60;;;11.60;99.90;;;;;;488458;242;27997;-70
2021/08/25 06:18:55;;;;;;;6.37;5.73;;;11.70;99.90;;;;;;488429;243;28169;-70
2021/08/25 06:20:56;;;;;;;6.30;5.70;;;11.70;99.90;;;;;;488458;242;28112;-69
2021/08/25 06:22:57;;;;;;;7.70;5.70;;;11.80;99.90;;;;;;488435;242;28087;-70
2021/08/25 06:24:58;;;;;;;5.70;5.20;;;11.90;99.90;;;;;;488462;242;28143;-70
2021/08/25 06:27:00;;;;;;;6.47;5.83;;;11.90;99.90;;;;;;488488;242;28022;-70
2021/08/25 06:29:01;;;;;;;7.60;5.60;;;11.90;99.90;;;;;;488459;242;28070;-69
2021/08/25 06:31:02;;;;;;;6.93;6.23;;;12.00;99.90;;;;;;488476;242;28275;-70
2021/08/25 06:33:03;;;;;;;7.30;6.60;;;12.10;99.90;;;;;;488429;242;28310;-69
2021/08/25 06:35:05;;;;;;;8.23;6.43;;;12.10;99.90;;;;;;488436;243;28939;-70
2021/08/25 06:37:06;;;;;;;8.63;6.20;;;12.20;99.90;;;;;;488473;242;29021;-69
2021/08/25 06:39:08;;;;;;;6.93;6.30;;;12.30;99.90;;;;;;488460;242;28803;-70
2021/08/25 06:41:08;;;;;;;7.20;6.50;;;12.30;99.90;;;;;;488450;243;28133;-69
2021/08/25 06:43:10;;;;;;;8.40;7.43;;;12.40;99.90;;;;;;488427;242;28276;-70
2021/08/25 06:45:11;;;;;;;9.53;7.73;;;12.50;99.90;;;;;;488465;242;28404;-69
2021/08/25 06:47:12;;;;;;;9.20;7.90;;;12.40;99.90;;;;;;488466;243;28334;-70
2021/08/25 06:49:13;;;;;;;9.53;7.83;;;12.50;99.90;;;;;;485522;242;28302;-70
2021/08/25 06:51:15;;;;;;;8.77;7.83;;;12.60;99.90;;;;;;488446;242;28106;-70
2021/08/25 06:53:16;;;;;;;9.20;7.70;;;12.60;99.90;;;;;;488393;242;28397;-69
2021/08/25 06:55:17;;;;;;;9.50;7.60;;;12.60;99.90;;;;;;488317;242;28663;-70
2021/08/25 06:57:18;;;;;;;8.90;6.97;;;12.70;99.90;;;;;;488292;243;28456;-70
2021/08/25 06:59:20;;;;;;;10.27;8.07;;;12.80;99.90;;;;;;488304;242;29168;-69
2021/08/25 07:01:21;;;;;;;9.17;7.70;;;12.90;99.90;;;;;;488444;243;28483;-70
2021/08/25 07:03:22;;;;;;;9.50;7.77;;;12.90;99.90;;;;;;488444;242;29277;-70
2021/08/25 07:05:23;;;;;;;7.70;6.90;;;13.00;99.90;;;;;;488291;242;28419;-70
2021/08/25 07:07:25;;;;;;;8.77;7.10;;;13.00;99.90;;;;;;488451;242;28070;-70
2021/08/25 07:09:26;;;;;;;12.20;6.80;;;13.10;99.90;;;;;;488471;242;28802;-70
2021/08/25 07:11:27;;;;;;;8.30;7.10;;;13.10;99.90;;;;;;488457;242;28061;-69
2021/08/25 07:13:28;;;;;;;9.43;7.10;;;13.10;99.90;;;;;;488485;242;28264;-69
2021/08/25 07:15:30;;;;;;;11.37;7.63;;;13.20;99.90;;;;;;488474;242;28833;-69
2021/08/25 07:17:31;;;;;;;9.00;7.40;;;13.20;99.90;;;;;;488450;242;28474;-70
2021/08/25 07:19:32;;;;;;;11.73;7.90;;;13.20;99.90;;;;;;488422;242;29162;-70
2021/08/25 07:21:33;;;;;;;7.70;6.60;;;13.20;99.90;;;;;;488445;242;28728;-70
2021/08/25 07:23:35;;;;;;;7.73;6.93;;;13.40;99.90;;;;;;488451;242;28802;-70
2021/08/25 07:25:36;;;;;;;8.57;7.30;;;13.40;99.90;;;;;;488485;242;28203;-70
2021/08/25 07:27:39;;;;;;;8.23;7.07;;;13.40;99.90;;;;;;488474;243;28326;-69
2021/08/25 07:29:38;;;;;;;7.00;6.30;;;13.50;99.90;;;;;;488389;243;28181;-70
2021/08/25 07:31:40;;;;;;;7.87;7.00;;;13.50;99.90;;;;;;488468;242;28113;-70
2021/08/25 07:33:41;;;;;;;7.80;6.77;;;13.50;99.90;;;;;;488453;243;28114;-70
2021/08/25 07:35:46;;;;;;;8.07;6.63;;;13.60;99.90;;;;;;488460;242;28722;-70
2021/08/25 07:37:43;;;;;;;7.23;6.53;;;13.70;99.90;;;;;;488251;243;28637;-69
2021/08/25 07:39:45;;;;;;;7.50;6.57;;;13.70;99.90;;;;;;488452;242;28101;-70
2021/08/25 07:41:46;;;;;;;9.97;6.50;;;13.80;99.90;;;;;;488446;242;28657;-70
2021/08/25 07:43:47;;;;;;;6.50;5.77;;;13.90;99.90;;;;;;488452;242;28656;-70
2021/08/25 07:45:48;;;;;;;8.13;6.30;;;13.90;99.90;;;;;;488460;242;28671;-70
2021/08/25 07:47:50;;;;;;;7.73;6.30;;;13.90;99.90;;;;;;488463;243;28676;-70
2021/08/25 07:49:51;;;;;;;7.10;6.40;;;13.90;99.90;;;;;;488447;242;28197;-71
2021/08/25 07:51:52;;;;;;;8.73;7.60;;;13.90;99.90;;;;;;488456;242;28218;-70
2021/08/25 07:53:53;;;;;;;7.60;6.80;;;14.00;99.90;;;;;;488448;242;28109;-72
2021/08/25 07:55:55;;;;;;;8.63;7.07;;;14.10;99.90;;;;;;488469;242;28149;-72
2021/08/25 07:57:56;;;;;;;8.57;7.40;;;14.20;99.90;;;;;;488445;242;28120;-71
2021/08/25 07:59:58;;;;;;;7.43;5.80;;;;;;;;;;488268;243;28192;-70
2021/08/25 08:02:00;;;;;;;8.80;7.00;;;14.20;99.90;;;;;;488459;243;27128;-69
2021/08/25 08:04:01;;;;;;;7.90;6.87;;;14.20;99.90;;;;;;488459;242;28112;-71
2021/08/25 08:06:02;;;;;;;7.40;6.67;;;14.20;99.90;;;;;;488451;242;28817;-70
2021/08/25 08:08:03;;;;;;;11.80;7.57;;;14.20;99.90;;;;;;488456;242;28216;-70
2021/08/25 08:10:05;;;;;;;12.43;6.57;;;14.30;99.90;;;;;;488451;242;28295;-70
2021/08/25 08:12:06;;;;;;;6.60;5.87;;;14.40;99.90;;;;;;488426;242;28254;-72
2021/08/25 08:14:08;;;;;;;7.00;6.33;;;14.50;99.90;;;;;;486179;242;28111;-72
2021/08/25 08:16:09;;;;;;;6.93;6.03;;;14.50;99.90;;;;;;483207;246;28991;-69
2021/08/25 08:18:13;;;;;;;6.53;5.93;;;14.60;99.90;;;;;;483262;246;28927;-72
2021/08/25 08:20:11;;;;;;;7.30;6.60;;;14.70;99.90;;;;;;483016;246;29064;-72
2021/08/25 08:22:12;;;;;;;6.50;5.90;;;14.80;99.90;;;;;;483270;246;30066;-69
2021/08/25 08:24:13;;;;;;;7.47;6.70;;;14.90;99.90;;;;;;483278;246;29128;-68
2021/08/25 08:26:15;;;;;;;8.03;7.10;;;14.90;99.90;;;;;;483275;246;28384;-72
2021/08/25 08:28:16;;;;;;;12.43;6.10;;;15.00;99.90;;;;;;483271;246;28543;-72
2021/08/25 08:30:17;;;;;;;6.83;6.13;;;15.10;99.90;;;;;;483280;246;28590;-71
2021/08/25 08:32:18;;;;;;;8.63;5.73;;;15.20;99.90;;;;;;483260;246;28469;-72
2021/08/25 08:34:20;;;;;;;6.40;5.80;;;15.10;99.90;;;;;;483270;246;28389;-69
2021/08/25 08:36:21;;;;;;;6.80;5.83;;;15.10;99.90;;;;;;483262;246;28586;-69
2021/08/25 08:38:22;;;;;;;7.63;5.70;;;15.10;99.90;;;;;;483217;246;28838;-70
2021/08/25 08:40:23;;;;;;;6.83;5.57;;;15.10;99.90;;;;;;483245;246;28539;-72
2021/08/25 08:42:25;;;;;;;7.07;5.37;;;15.30;99.90;;;;;;483192;246;29383;-69
2021/08/25 08:44:26;;;;;;;6.27;5.47;;;15.30;99.90;;;;;;483233;246;29386;-70
2021/08/25 08:46:27;;;;;;;7.20;5.90;;;15.20;99.90;;;;;;483253;246;29502;-70
2021/08/25 08:48:29;;;;;;;6.20;5.60;;;15.30;99.90;;;;;;483219;246;28850;-70
2021/08/25 08:50:30;;;;;;;8.10;5.40;;;15.20;99.90;;;;;;483246;246;28950;-70
2021/08/25 08:52:31;;;;;;;5.53;5.03;;;15.30;99.90;;;;;;483260;246;28696;-71
2021/08/25 08:54:32;;;;;;;8.67;5.87;;;15.40;99.90;;;;;;483231;246;28919;-69
2021/08/25 08:56:33;;;;;;;7.90;5.77;;;15.80;99.90;;;;;;483239;246;28983;-70
2021/08/25 08:58:35;;;;;;;6.63;5.27;;;15.60;99.90;;;;;;483211;246;28585;-70
2021/08/25 09:00:38;;;;;;;6.37;5.70;;;15.50;99.90;;;;;;483210;246;28861;-70
2021/08/25 09:02:38;;;;;;;7.20;5.23;;;15.80;99.90;;;;;;483142;246;28579;-71
2021/08/25 09:04:38;;;;;;;6.27;5.40;;;15.60;99.90;;;;;;483202;246;28959;-70
2021/08/25 09:06:40;;;;;;;5.70;5.10;;;15.60;99.90;;;;;;483246;246;29437;-70
2021/08/25 09:08:41;;;;;;;7.30;5.53;;;15.70;99.90;;;;;;483229;246;30318;-69
2021/08/25 09:10:42;;;;;;;5.63;5.13;;;15.80;99.90;;;;;;483203;246;29326;-69
2021/08/25 09:12:43;;;;;;;5.27;4.77;;;15.80;99.90;;;;;;483113;246;28884;-70
2021/08/25 09:14:45;;;;;;;6.20;5.23;;;16.00;99.90;;;;;;483176;246;28852;-70
2021/08/25 09:16:46;;;;;;;5.53;5.03;;;16.30;99.90;;;;;;483241;246;28932;-69
2021/08/25 09:18:47;;;;;;;6.00;5.00;;;16.20;99.90;;;;;;483241;246;28915;-70
2021/08/25 09:20:49;;;;;;;5.80;5.20;;;16.40;99.90;;;;;;483256;246;28867;-69
2021/08/25 09:22:50;;;;;;;5.80;5.03;;;16.50;99.90;;;;;;483233;246;29215;-70
2021/08/25 09:24:52;;;;;;;4.70;4.20;;;16.50;99.90;;;;;;483259;246;29294;-70
2021/08/25 09:26:53;;;;;;;5.53;4.97;;;16.40;99.90;;;;;;483258;246;29387;-70
2021/08/25 09:28:54;;;;;;;5.67;5.07;;;16.60;99.90;;;;;;483245;246;29479;-70
2021/08/25 09:30:55;;;;;;;5.30;4.80;;;16.60;99.90;;;;;;483248;246;29308;-70
2021/08/25 09:32:57;;;;;;;6.53;5.17;;;16.70;99.90;;;;;;483258;246;28864;-70
2021/08/25 09:34:58;;;;;;;8.23;5.20;;;16.80;99.90;;;;;;483268;246;28910;-70
2021/08/25 09:37:00;;;;;;;5.40;4.70;;;17.10;99.90;;;;;;483273;246;28854;-69
2021/08/25 09:39:01;;;;;;;8.70;5.37;;;17.10;99.90;;;;;;483241;246;28900;-70
2021/08/25 09:41:02;;;;;;;5.60;4.70;;;17.10;99.90;;;;;;479921;241;28815;-70
2021/08/25 09:43:03;;;;;;;6.27;4.90;;;17.20;99.90;;;;;;479834;247;29283;-70
2021/08/25 09:45:06;;;;;;;9.50;4.67;;;17.10;99.90;;;;;;479840;247;29323;-70
2021/08/25 09:47:06;;;;;;;7.50;5.43;;;17.10;99.90;;;;;;479825;247;29281;-71
2021/08/25 09:49:07;;;;;;;12.27;4.93;;;17.20;99.90;;;;;;479786;247;28760;-71
2021/08/25 09:51:08;;;;;;;6.37;4.77;;;17.20;99.90;;;;;;479827;247;28897;-71
2021/08/25 09:53:10;;;;;;;5.30;4.30;;;17.30;99.90;;;;;;479854;247;28831;-71
2021/08/25 09:55:11;;;;;;;5.73;4.30;;;17.40;99.90;;;;;;479921;247;28817;-71
2021/08/25 09:57:12;;;;;;;5.53;4.57;;;17.30;99.90;;;;;;479886;247;28851;-71
2021/08/25 09:59:13;;;;;;;5.30;4.27;;;17.30;99.90;;;;;;479862;247;28820;-71
2021/08/25 10:01:15;;;;;;;6.90;4.70;;;17.20;99.90;;;;;;479881;247;28826;-72
2021/08/25 10:03:16;;;;;;;5.00;4.50;;;17.40;99.90;;;;;;479890;247;28757;-71
2021/08/25 10:05:17;;;;;;;5.47;4.47;;;17.60;99.90;;;;;;479868;247;30106;-71
2021/08/25 10:07:18;;;;;;;6.00;4.17;;;17.70;99.90;;;;;;479858;247;29410;-71
2021/08/25 10:09:20;;;;;;;5.50;4.10;;;17.70;99.90;;;;;;479842;247;29210;-71
2021/08/25 10:11:22;;;;;;;7.00;4.47;;;17.80;99.90;;;;;;479806;247;29305;-72
2021/08/25 10:13:22;;;;;;;6.40;4.40;;;17.90;99.90;;;;;;479840;247;28768;-70
2021/08/25 10:15:23;;;;;;;5.50;4.93;;;18.10;99.90;;;;;;479839;247;28911;-70
2021/08/25 10:17:25;;;;;;;6.23;4.60;;;18.10;99.90;;;;;;479862;247;28771;-70
2021/08/25 10:19:26;;;;;;;6.60;4.50;;;18.10;99.90;;;;;;479808;247;28747;-71
2021/08/25 10:21:27;;;;;;;6.83;4.40;;;18.10;99.90;;;;;;479892;247;28797;-71
2021/08/25 10:23:28;;;;;;;4.53;3.97;;;18.20;99.90;;;;;;479852;247;28743;-72
2021/08/25 10:25:30;;;;;;;4.03;3.67;;;18.10;99.90;;;;;;479907;247;28830;-70
2021/08/25 10:27:32;;;;;;;5.50;4.43;;;18.20;99.90;;;;;;479844;247;29132;-70
2021/08/25 10:29:32;;;;;;;5.10;4.10;;;18.30;99.90;;;;;;479823;247;28821;-70
2021/08/25 10:31:33;;;;;;;4.60;4.10;;;18.20;99.90;;;;;;479828;247;29352;-70